sensor_id;sensor_type;location;lat;lon;timestamp;pressure;altitude;pressure_sealevel;temperature;humidity
41234;BME280;26968;42.686;23.352;2023-04-08T00:02:14;95300.16;;;6.33;57.67
41234;BME280;26968;42.686;23.352;2023-04-08T00:04:40;95292.13;;;6.23;58.33
41234;BME280;26968;42.686;23.352;2023-04-08T00:07:05;95328.03;;;6.29;57.76
41234;BME280;26968;42.686;23.352;2023-04-08T00:09:31;95330.88;;;6.44;58.21
41234;BME280;26968;42.686;23.352;2023-04-08T00:11:57;95319.91;;;6.14;57.48
41234;BME280;26968;42.686;23.352;2023-04-08T00:14:22;95303.03;;;6.10;57.67
41234;BME280;26968;42.686;23.352;2023-04-08T00:16:48;95307.31;;;6.16;57.88
41234;BME280;26968;42.686;23.352;2023-04-08T00:19:13;95293.91;;;6.17;57.54
41234;BME280;26968;42.686;23.352;2023-04-08T00:21:38;95327.78;;;6.31;57.66
41234;BME280;26968;42.686;23.352;2023-04-08T00:24:05;95314.31;;;6.27;57.57
41234;BME280;26968;42.686;23.352;2023-04-08T00:26:31;95334.31;;;6.45;57.35
41234;BME280;26968;42.686;23.352;2023-04-08T00:28:56;95317.69;;;6.44;56.90
41234;BME280;26968;42.686;23.352;2023-04-08T00:31:22;95317.50;;;6.51;57.82
41234;BME280;26968;42.686;23.352;2023-04-08T00:33:47;95292.50;;;6.10;58.44
41234;BME280;26968;42.686;23.352;2023-04-08T00:36:13;95329.44;;;6.37;58.24
41234;BME280;26968;42.686;23.352;2023-04-08T00:38:38;95334.72;;;6.37;58.42
41234;BME280;26968;42.686;23.352;2023-04-08T00:41:04;95329.44;;;6.37;58.55
41234;BME280;26968;42.686;23.352;2023-04-08T00:43:29;95319.44;;;6.17;58.78
41234;BME280;26968;42.686;23.352;2023-04-08T00:45:55;95310.03;;;6.04;58.85
41234;BME280;26968;42.686;23.352;2023-04-08T00:48:20;95330.50;;;6.19;58.89
41234;BME280;26968;42.686;23.352;2023-04-08T00:50:46;95261.47;;;5.78;58.84
41234;BME280;26968;42.686;23.352;2023-04-08T00:53:14;95334.84;;;6.25;59.17
41234;BME280;26968;42.686;23.352;2023-04-08T00:55:41;95314.09;;;6.12;59.03
41234;BME280;26968;42.686;23.352;2023-04-08T00:58:07;95298.41;;;6.00;58.89
41234;BME280;26968;42.686;23.352;2023-04-08T01:00:33;95334.50;;;6.22;59.04
41234;BME280;26968;42.686;23.352;2023-04-08T01:03:08;95209.59;;;5.40;58.72
41234;BME280;26968;42.686;23.352;2023-04-08T01:05:49;95341.94;;;6.25;59.32
41234;BME280;26968;42.686;23.352;2023-04-08T01:08:17;95307.91;;;6.01;59.30
41234;BME280;26968;42.686;23.352;2023-04-08T01:10:43;95322.78;;;6.12;59.24
41234;BME280;26968;42.686;23.352;2023-04-08T01:13:16;95299.66;;;5.98;59.55
41234;BME280;26968;42.686;23.352;2023-04-08T01:15:43;95323.28;;;6.09;59.99
41234;BME280;26968;42.686;23.352;2023-04-08T01:18:11;95322.34;;;5.99;60.01
41234;BME280;26968;42.686;23.352;2023-04-08T01:20:38;95334.44;;;6.16;59.25
41234;BME280;26968;42.686;23.352;2023-04-08T01:23:20;95338.69;;;6.17;59.22
41234;BME280;26968;42.686;23.352;2023-04-08T01:25:55;95331.53;;;6.18;59.27
41234;BME280;26968;42.686;23.352;2023-04-08T01:28:22;95313.69;;;6.03;60.00
41234;BME280;26968;42.686;23.352;2023-04-08T01:30:49;95329.03;;;6.06;59.78
41234;BME280;26968;42.686;23.352;2023-04-08T01:33:16;95318.72;;;6.05;59.49
41234;BME280;26968;42.686;23.352;2023-04-08T01:35:44;95238.94;;;5.49;59.76
41234;BME280;26968;42.686;23.352;2023-04-08T01:38:14;95343.69;;;6.19;59.12
41234;BME280;26968;42.686;23.352;2023-04-08T01:40:41;95340.19;;;6.13;59.17
41234;BME280;26968;42.686;23.352;2023-04-08T01:43:08;95329.88;;;6.12;58.97
41234;BME280;26968;42.686;23.352;2023-04-08T01:45:34;95343.22;;;6.22;59.11
41234;BME280;26968;42.686;23.352;2023-04-08T01:48:01;95281.78;;;5.83;59.35
41234;BME280;26968;42.686;23.352;2023-04-08T01:50:28;95342.66;;;6.20;58.89
41234;BME280;26968;42.686;23.352;2023-04-08T01:52:55;95293.91;;;5.84;59.42
41234;BME280;26968;42.686;23.352;2023-04-08T01:55:23;95320.09;;;6.07;59.16
41234;BME280;26968;42.686;23.352;2023-04-08T01:57:52;95342.19;;;6.23;59.61
41234;BME280;26968;42.686;23.352;2023-04-08T02:00:21;95330.69;;;6.12;59.51
41234;BME280;26968;42.686;23.352;2023-04-08T02:02:48;95301.91;;;5.89;59.65
41234;BME280;26968;42.686;23.352;2023-04-08T02:05:15;95314.19;;;6.00;59.50
41234;BME280;26968;42.686;23.352;2023-04-08T02:07:40;95317.63;;;6.01;59.89
41234;BME280;26968;42.686;23.352;2023-04-08T02:10:06;95327.94;;;6.02;59.42
41234;BME280;26968;42.686;23.352;2023-04-08T02:12:32;95368.50;;;6.23;59.60
41234;BME280;26968;42.686;23.352;2023-04-08T02:14:58;95338.47;;;6.02;59.36
41234;BME280;26968;42.686;23.352;2023-04-08T02:18:12;95365.03;;;6.01;60.21
41234;BME280;26968;42.686;23.352;2023-04-08T02:20:33;95368.91;;;6.15;59.64
41234;BME280;26968;42.686;23.352;2023-04-08T02:23:06;95365.53;;;6.19;59.88
41234;BME280;26968;42.686;23.352;2023-04-08T02:25:36;95372.66;;;6.19;59.34
41234;BME280;26968;42.686;23.352;2023-04-08T02:28:05;95372.41;;;6.20;59.45
41234;BME280;26968;42.686;23.352;2023-04-08T02:30:31;95361.41;;;6.07;60.01
41234;BME280;26968;42.686;23.352;2023-04-08T02:33:00;95366.28;;;6.15;60.46
41234;BME280;26968;42.686;23.352;2023-04-08T02:35:28;95351.63;;;6.02;60.00
41234;BME280;26968;42.686;23.352;2023-04-08T02:37:53;95359.75;;;6.17;59.67
41234;BME280;26968;42.686;23.352;2023-04-08T02:40:29;95360.44;;;6.13;60.44
41234;BME280;26968;42.686;23.352;2023-04-08T02:42:55;95344.50;;;6.03;59.67
41234;BME280;26968;42.686;23.352;2023-04-08T02:45:21;95366.22;;;6.10;60.64
41234;BME280;26968;42.686;23.352;2023-04-08T02:47:47;95366.44;;;6.08;61.18
41234;BME280;26968;42.686;23.352;2023-04-08T02:50:12;95334.41;;;5.95;60.43
41234;BME280;26968;42.686;23.352;2023-04-08T02:52:38;95314.66;;;5.80;60.52
41234;BME280;26968;42.686;23.352;2023-04-08T02:55:04;95362.44;;;6.06;60.99
41234;BME280;26968;42.686;23.352;2023-04-08T02:57:35;95361.97;;;6.09;60.70
41234;BME280;26968;42.686;23.352;2023-04-08T03:00:02;95326.06;;;5.86;60.83
41234;BME280;26968;42.686;23.352;2023-04-08T03:02:28;95340.34;;;5.90;61.37
41234;BME280;26968;42.686;23.352;2023-04-08T03:04:53;95366.69;;;6.07;61.15
41234;BME280;26968;42.686;23.352;2023-04-08T03:07:19;95373.56;;;6.08;61.49
41234;BME280;26968;42.686;23.352;2023-04-08T03:09:45;95314.97;;;5.67;61.43
41234;BME280;26968;42.686;23.352;2023-04-08T03:12:10;95328.06;;;5.79;61.29
41234;BME280;26968;42.686;23.352;2023-04-08T03:14:36;95339.22;;;5.86;61.36
41234;BME280;26968;42.686;23.352;2023-04-08T03:17:01;95367.41;;;6.02;61.53
41234;BME280;26968;42.686;23.352;2023-04-08T03:19:27;95366.06;;;6.00;61.78
41234;BME280;26968;42.686;23.352;2023-04-08T03:21:52;95312.97;;;5.74;61.67
41234;BME280;26968;42.686;23.352;2023-04-08T03:24:18;95346.25;;;5.97;62.02
41234;BME280;26968;42.686;23.352;2023-04-08T03:26:43;95309.25;;;5.70;61.80
41234;BME280;26968;42.686;23.352;2023-04-08T03:29:08;95365.03;;;6.01;61.27
41234;BME280;26968;42.686;23.352;2023-04-08T03:31:34;95343.69;;;5.86;61.48
41234;BME280;26968;42.686;23.352;2023-04-08T03:34:00;95355.69;;;5.93;62.03
41234;BME280;26968;42.686;23.352;2023-04-08T03:36:25;95351.91;;;5.89;62.06
41234;BME280;26968;42.686;23.352;2023-04-08T03:38:51;95375.31;;;6.02;62.28
41234;BME280;26968;42.686;23.352;2023-04-08T03:41:16;95372.91;;;6.01;61.57
41234;BME280;26968;42.686;23.352;2023-04-08T03:43:42;95355.81;;;5.87;61.50
41234;BME280;26968;42.686;23.352;2023-04-08T03:46:07;95371.78;;;5.97;61.65
41234;BME280;26968;42.686;23.352;2023-04-08T03:48:32;95373.88;;;5.95;61.90
41234;BME280;26968;42.686;23.352;2023-04-08T03:50:58;95373.06;;;5.94;62.16
41234;BME280;26968;42.686;23.352;2023-04-08T03:53:23;95370.97;;;5.96;62.58
41234;BME280;26968;42.686;23.352;2023-04-08T03:55:49;95368.63;;;5.95;62.28
41234;BME280;26968;42.686;23.352;2023-04-08T03:58:17;95335.69;;;5.80;62.71
41234;BME280;26968;42.686;23.352;2023-04-08T04:00:43;95340.59;;;5.72;62.38
41234;BME280;26968;42.686;23.352;2023-04-08T04:03:08;95341.22;;;5.79;62.64
41234;BME280;26968;42.686;23.352;2023-04-08T04:05:37;95322.00;;;5.62;62.34
41234;BME280;26968;42.686;23.352;2023-04-08T04:08:03;95316.44;;;5.30;63.57
41234;BME280;26968;42.686;23.352;2023-04-08T04:10:28;95330.28;;;5.54;62.49
41234;BME280;26968;42.686;23.352;2023-04-08T04:12:54;95333.31;;;5.62;62.31
41234;BME280;26968;42.686;23.352;2023-04-08T04:15:19;95330.91;;;5.61;62.42
41234;BME280;26968;42.686;23.352;2023-04-08T04:17:47;95358.28;;;5.76;62.22
41234;BME280;26968;42.686;23.352;2023-04-08T04:20:14;95348.72;;;5.70;62.69
41234;BME280;26968;42.686;23.352;2023-04-08T04:22:40;95326.63;;;5.55;62.93
41234;BME280;26968;42.686;23.352;2023-04-08T04:25:06;95339.38;;;5.63;62.70
41234;BME280;26968;42.686;23.352;2023-04-08T04:27:31;95336.66;;;5.58;62.43
41234;BME280;26968;42.686;23.352;2023-04-08T04:29:57;95352.38;;;5.69;62.14
41234;BME280;26968;42.686;23.352;2023-04-08T04:32:22;95378.47;;;5.88;62.21
41234;BME280;26968;42.686;23.352;2023-04-08T04:34:47;95345.06;;;5.71;62.29
41234;BME280;26968;42.686;23.352;2023-04-08T04:37:13;95321.00;;;5.51;62.42
41234;BME280;26968;42.686;23.352;2023-04-08T04:39:38;95371.38;;;5.88;62.33
41234;BME280;26968;42.686;23.352;2023-04-08T04:42:03;95351.19;;;5.77;62.55
41234;BME280;26968;42.686;23.352;2023-04-08T04:44:29;95362.13;;;5.86;62.05
41234;BME280;26968;42.686;23.352;2023-04-08T04:46:55;95346.16;;;5.75;61.90
41234;BME280;26968;42.686;23.352;2023-04-08T04:49:20;95282.28;;;5.30;62.03
41234;BME280;26968;42.686;23.352;2023-04-08T04:51:46;95317.75;;;5.61;61.72
41234;BME280;26968;42.686;23.352;2023-04-08T04:54:11;95376.66;;;6.05;61.04
41234;BME280;26968;42.686;23.352;2023-04-08T04:56:37;95381.22;;;5.93;61.42
41234;BME280;26968;42.686;23.352;2023-04-08T04:59:02;95340.59;;;5.72;60.83
41234;BME280;26968;42.686;23.352;2023-04-08T05:01:29;95352.84;;;5.83;60.89
41234;BME280;26968;42.686;23.352;2023-04-08T05:03:55;95386.78;;;5.96;60.83
41234;BME280;26968;42.686;23.352;2023-04-08T05:06:22;95384.16;;;5.96;60.30
41234;BME280;26968;42.686;23.352;2023-04-08T05:08:48;95371.72;;;5.92;60.23
41234;BME280;26968;42.686;23.352;2023-04-08T05:11:15;95387.19;;;6.05;60.21
41234;BME280;26968;42.686;23.352;2023-04-08T05:13:42;95332.34;;;5.52;60.17
41234;BME280;26968;42.686;23.352;2023-04-08T05:16:08;95357.72;;;5.74;59.96
41234;BME280;26968;42.686;23.352;2023-04-08T05:18:33;95362.41;;;5.72;60.61
41234;BME280;26968;42.686;23.352;2023-04-08T05:20:59;95359.00;;;5.72;59.80
41234;BME280;26968;42.686;23.352;2023-04-08T05:23:24;95368.81;;;5.76;61.00
41234;BME280;26968;42.686;23.352;2023-04-08T05:25:50;95359.91;;;5.94;59.96
41234;BME280;26968;42.686;23.352;2023-04-08T05:28:15;95390.03;;;6.20;59.92
41234;BME280;26968;42.686;23.352;2023-04-08T05:30:40;95337.03;;;5.95;60.39
41234;BME280;26968;42.686;23.352;2023-04-08T05:33:06;95350.50;;;5.98;60.22
41234;BME280;26968;42.686;23.352;2023-04-08T05:35:31;95384.38;;;6.28;60.61
41234;BME280;26968;42.686;23.352;2023-04-08T05:37:57;95363.00;;;6.25;60.28
41234;BME280;26968;42.686;23.352;2023-04-08T05:40:22;95392.88;;;6.52;60.17
41234;BME280;26968;42.686;23.352;2023-04-08T05:42:48;95395.34;;;6.58;59.83
41234;BME280;26968;42.686;23.352;2023-04-08T05:45:13;95392.25;;;6.62;59.88
41234;BME280;26968;42.686;23.352;2023-04-08T05:47:39;95344.84;;;6.45;59.98
41234;BME280;26968;42.686;23.352;2023-04-08T05:50:05;95380.25;;;6.71;59.59
41234;BME280;26968;42.686;23.352;2023-04-08T05:52:30;95386.19;;;6.83;59.40
41234;BME280;26968;42.686;23.352;2023-04-08T05:54:56;95383.13;;;6.91;59.23
41234;BME280;26968;42.686;23.352;2023-04-08T05:57:21;95355.53;;;6.77;58.56
41234;BME280;26968;42.686;23.352;2023-04-08T05:59:46;95387.53;;;7.07;58.50
41234;BME280;26968;42.686;23.352;2023-04-08T06:02:12;95390.22;;;7.12;58.03
41234;BME280;26968;42.686;23.352;2023-04-08T06:04:37;95349.41;;;6.93;57.79
41234;BME280;26968;42.686;23.352;2023-04-08T06:07:03;95365.66;;;7.07;57.93
41234;BME280;26968;42.686;23.352;2023-04-08T06:09:33;95274.94;;;6.59;57.77
41234;BME280;26968;42.686;23.352;2023-04-08T06:11:58;95252.16;;;6.48;57.78
41234;BME280;26968;42.686;23.352;2023-04-08T06:14:24;95355.47;;;7.15;58.20
41234;BME280;26968;42.686;23.352;2023-04-08T06:16:49;95344.97;;;7.20;58.00
41234;BME280;26968;42.686;23.352;2023-04-08T06:19:14;95367.03;;;7.36;57.56
41234;BME280;26968;42.686;23.352;2023-04-08T06:21:40;95306.00;;;7.01;58.40
41234;BME280;26968;42.686;23.352;2023-04-08T06:24:06;95322.19;;;7.09;58.09
41234;BME280;26968;42.686;23.352;2023-04-08T06:26:31;95371.09;;;7.49;58.39
41234;BME280;26968;42.686;23.352;2023-04-08T06:28:57;95387.88;;;7.64;58.26
41234;BME280;26968;42.686;23.352;2023-04-08T06:31:22;95390.84;;;7.68;58.32
41234;BME280;26968;42.686;23.352;2023-04-08T06:33:48;95392.31;;;7.59;58.75
41234;BME280;26968;42.686;23.352;2023-04-08T06:36:14;95357.25;;;7.36;58.29
41234;BME280;26968;42.686;23.352;2023-04-08T06:38:40;95348.00;;;7.34;59.04
41234;BME280;26968;42.686;23.352;2023-04-08T06:41:06;95370.13;;;7.55;58.52
41234;BME280;26968;42.686;23.352;2023-04-08T06:43:32;95334.41;;;7.47;58.80
41234;BME280;26968;42.686;23.352;2023-04-08T06:45:58;95392.94;;;7.71;59.63
41234;BME280;26968;42.686;23.352;2023-04-08T06:48:24;95389.84;;;7.79;59.48
41234;BME280;26968;42.686;23.352;2023-04-08T06:50:58;95301.53;;;7.33;59.11
41234;BME280;26968;42.686;23.352;2023-04-08T06:53:24;95284.63;;;7.29;59.46
41234;BME280;26968;42.686;23.352;2023-04-08T06:55:50;95341.56;;;7.52;60.15
41234;BME280;26968;42.686;23.352;2023-04-08T06:58:16;95362.34;;;7.70;60.77
41234;BME280;26968;42.686;23.352;2023-04-08T07:00:42;95392.44;;;8.01;60.15
41234;BME280;26968;42.686;23.352;2023-04-08T07:03:07;95368.94;;;7.99;59.89
41234;BME280;26968;42.686;23.352;2023-04-08T07:05:36;95339.91;;;7.72;60.16
41234;BME280;26968;42.686;23.352;2023-04-08T07:08:02;95368.13;;;7.99;60.19
41234;BME280;26968;42.686;23.352;2023-04-08T07:10:28;95337.91;;;7.85;59.71
41234;BME280;26968;42.686;23.352;2023-04-08T07:12:53;95354.81;;;8.21;59.02
41234;BME280;26968;42.686;23.352;2023-04-08T07:15:19;95364.78;;;8.08;59.37
41234;BME280;26968;42.686;23.352;2023-04-08T07:17:45;95385.38;;;8.43;59.14
41234;BME280;26968;42.686;23.352;2023-04-08T07:20:12;95380.28;;;8.32;59.98
41234;BME280;26968;42.686;23.352;2023-04-08T07:22:38;95400.53;;;8.53;59.23
41234;BME280;26968;42.686;23.352;2023-04-08T07:25:04;95406.94;;;8.67;59.20
41234;BME280;26968;42.686;23.352;2023-04-08T07:27:29;95409.81;;;8.61;58.52
41234;BME280;26968;42.686;23.352;2023-04-08T07:29:55;95373.31;;;8.58;58.18
41234;BME280;26968;42.686;23.352;2023-04-08T07:32:20;95366.19;;;8.58;58.10
41234;BME280;26968;42.686;23.352;2023-04-08T07:34:46;95381.97;;;8.48;59.16
41234;BME280;26968;42.686;23.352;2023-04-08T07:37:11;95363.53;;;8.58;58.46
41234;BME280;26968;42.686;23.352;2023-04-08T07:39:37;95366.00;;;8.75;58.03
41234;BME280;26968;42.686;23.352;2023-04-08T07:42:02;95383.38;;;8.61;59.28
41234;BME280;26968;42.686;23.352;2023-04-08T07:44:28;95400.13;;;8.76;58.20
41234;BME280;26968;42.686;23.352;2023-04-08T07:46:53;95413.75;;;9.05;57.78
41234;BME280;26968;42.686;23.352;2023-04-08T07:49:18;95360.69;;;8.70;58.49
41234;BME280;26968;42.686;23.352;2023-04-08T07:51:44;95395.97;;;8.90;58.68
41234;BME280;26968;42.686;23.352;2023-04-08T07:54:09;95399.50;;;9.06;57.96
41234;BME280;26968;42.686;23.352;2023-04-08T07:56:37;95422.88;;;9.29;58.41
41234;BME280;26968;42.686;23.352;2023-04-08T07:59:05;95399.00;;;9.19;58.32
41234;BME280;26968;42.686;23.352;2023-04-08T08:01:31;95414.38;;;9.22;57.84
41234;BME280;26968;42.686;23.352;2023-04-08T08:03:59;95433.78;;;9.48;56.90
41234;BME280;26968;42.686;23.352;2023-04-08T08:06:24;95365.94;;;9.22;57.07
41234;BME280;26968;42.686;23.352;2023-04-08T08:08:50;95425.06;;;9.63;56.48
41234;BME280;26968;42.686;23.352;2023-04-08T08:11:15;95373.44;;;9.45;56.23
41234;BME280;26968;42.686;23.352;2023-04-08T08:13:41;95434.97;;;9.98;55.28
41234;BME280;26968;42.686;23.352;2023-04-08T08:16:06;95405.25;;;9.86;55.69
41234;BME280;26968;42.686;23.352;2023-04-08T08:18:35;95431.25;;;10.04;54.57
41234;BME280;26968;42.686;23.352;2023-04-08T08:21:01;95402.63;;;9.91;54.86
41234;BME280;26968;42.686;23.352;2023-04-08T08:23:27;95412.72;;;10.14;54.37
41234;BME280;26968;42.686;23.352;2023-04-08T08:26:00;95424.69;;;10.22;53.71
41234;BME280;26968;42.686;23.352;2023-04-08T08:28:26;95423.31;;;10.09;55.59
41234;BME280;26968;42.686;23.352;2023-04-08T08:30:51;95414.34;;;10.20;55.79
41234;BME280;26968;42.686;23.352;2023-04-08T08:33:17;95412.47;;;10.31;53.90
41234;BME280;26968;42.686;23.352;2023-04-08T08:35:42;95405.59;;;10.35;53.21
41234;BME280;26968;42.686;23.352;2023-04-08T08:38:08;95405.59;;;10.35;53.97
41234;BME280;26968;42.686;23.352;2023-04-08T08:40:33;95400.56;;;10.28;53.83
41234;BME280;26968;42.686;23.352;2023-04-08T08:42:59;95397.38;;;10.21;54.14
41234;BME280;26968;42.686;23.352;2023-04-08T08:45:25;95422.00;;;10.57;54.17
41234;BME280;26968;42.686;23.352;2023-04-08T08:47:51;95422.81;;;10.68;53.32
41234;BME280;26968;42.686;23.352;2023-04-08T08:50:17;95434.19;;;10.63;53.12
41234;BME280;26968;42.686;23.352;2023-04-08T08:52:48;95384.38;;;10.25;54.11
41234;BME280;26968;42.686;23.352;2023-04-08T08:55:14;95405.84;;;10.23;53.67
41234;BME280;26968;42.686;23.352;2023-04-08T08:57:40;95342.75;;;9.85;53.27
41234;BME280;26968;42.686;23.352;2023-04-08T09:00:06;95410.56;;;10.01;54.74
41234;BME280;26968;42.686;23.352;2023-04-08T09:02:32;95436.88;;;10.18;54.37
41234;BME280;26968;42.686;23.352;2023-04-08T09:05:00;95440.28;;;10.13;55.73
41234;BME280;26968;42.686;23.352;2023-04-08T09:07:27;95421.50;;;10.25;54.77
41234;BME280;26968;42.686;23.352;2023-04-08T09:09:54;95422.03;;;10.32;55.22
41234;BME280;26968;42.686;23.352;2023-04-08T09:12:21;95446.41;;;10.34;55.83
41234;BME280;26968;42.686;23.352;2023-04-08T09:14:47;95442.19;;;10.43;55.05
41234;BME280;26968;42.686;23.352;2023-04-08T09:17:13;95392.03;;;9.81;55.83
41234;BME280;26968;42.686;23.352;2023-04-08T09:19:38;95439.78;;;10.21;56.46
41234;BME280;26968;42.686;23.352;2023-04-08T09:22:08;95371.09;;;9.99;56.37
41234;BME280;26968;42.686;23.352;2023-04-08T09:24:34;95429.97;;;10.62;55.49
41234;BME280;26968;42.686;23.352;2023-04-08T09:27:01;95425.19;;;10.59;55.45
41234;BME280;26968;42.686;23.352;2023-04-08T09:29:26;95340.88;;;10.16;54.80
41234;BME280;26968;42.686;23.352;2023-04-08T09:31:53;95429.16;;;10.72;55.13
41234;BME280;26968;42.686;23.352;2023-04-08T09:34:20;95424.34;;;10.89;54.44
41234;BME280;26968;42.686;23.352;2023-04-08T09:36:47;95396.94;;;11.09;53.59
41234;BME280;26968;42.686;23.352;2023-04-08T09:39:13;95421.50;;;11.45;52.66
41234;BME280;26968;42.686;23.352;2023-04-08T09:41:39;95397.19;;;11.17;53.47
41234;BME280;26968;42.686;23.352;2023-04-08T09:44:07;95414.94;;;11.27;53.30
41234;BME280;26968;42.686;23.352;2023-04-08T09:46:39;95411.09;;;11.53;52.49
41234;BME280;26968;42.686;23.352;2023-04-08T09:52:38;95413.44;;;11.60;51.82
41234;BME280;26968;42.686;23.352;2023-04-08T09:55:09;95387.97;;;11.59;51.51
41234;BME280;26968;42.686;23.352;2023-04-08T09:57:43;95406.94;;;11.91;51.75
41234;BME280;26968;42.686;23.352;2023-04-08T10:00:13;95411.75;;;12.57;50.90
41234;BME280;26968;42.686;23.352;2023-04-08T10:02:55;95399.28;;;13.34;49.06
41234;BME280;26968;42.686;23.352;2023-04-08T10:05:26;95374.31;;;13.68;46.80
41234;BME280;26968;42.686;23.352;2023-04-08T10:07:52;95400.06;;;14.80;45.40
41234;BME280;26968;42.686;23.352;2023-04-08T10:10:19;95367.13;;;15.39;42.39
41234;BME280;26968;42.686;23.352;2023-04-08T10:12:45;95364.69;;;16.14;41.69
41234;BME280;26968;42.686;23.352;2023-04-08T10:15:24;95378.84;;;15.93;40.40
41234;BME280;26968;42.686;23.352;2023-04-08T10:17:54;95359.78;;;16.30;40.01
41234;BME280;26968;42.686;23.352;2023-04-08T10:23:04;95377.56;;;16.57;40.05
41234;BME280;26968;42.686;23.352;2023-04-08T10:25:44;95376.06;;;16.42;40.23
41234;BME280;26968;42.686;23.352;2023-04-08T10:30:39;95386.53;;;15.31;41.45
41234;BME280;26968;42.686;23.352;2023-04-08T10:35:38;95353.44;;;14.58;43.06
41234;BME280;26968;42.686;23.352;2023-04-08T10:38:11;95377.06;;;14.65;42.67
41234;BME280;26968;42.686;23.352;2023-04-08T10:40:39;95372.34;;;14.62;42.46
41234;BME280;26968;42.686;23.352;2023-04-08T10:43:13;95347.84;;;14.09;44.29
41234;BME280;26968;42.686;23.352;2023-04-08T10:45:39;95371.72;;;13.81;45.08
41234;BME280;26968;42.686;23.352;2023-04-08T10:48:16;95370.34;;;13.46;45.59
41234;BME280;26968;42.686;23.352;2023-04-08T10:50:43;95353.84;;;13.63;44.99
41234;BME280;26968;42.686;23.352;2023-04-08T10:53:09;95343.34;;;13.53;44.87
41234;BME280;26968;42.686;23.352;2023-04-08T10:55:35;95337.81;;;13.49;45.88
41234;BME280;26968;42.686;23.352;2023-04-08T10:58:07;95297.00;;;13.68;46.77
41234;BME280;26968;42.686;23.352;2023-04-08T11:00:35;95320.25;;;14.32;43.99
41234;BME280;26968;42.686;23.352;2023-04-08T11:03:09;95348.53;;;14.79;43.59
41234;BME280;26968;42.686;23.352;2023-04-08T11:05:36;95318.19;;;15.16;42.68
41234;BME280;26968;42.686;23.352;2023-04-08T11:08:02;95350.31;;;15.25;42.45
41234;BME280;26968;42.686;23.352;2023-04-08T11:10:28;95319.56;;;15.00;41.55
41234;BME280;26968;42.686;23.352;2023-04-08T11:12:54;95338.22;;;14.73;41.12
41234;BME280;26968;42.686;23.352;2023-04-08T11:15:21;95316.97;;;14.35;41.26
41234;BME280;26968;42.686;23.352;2023-04-08T11:17:47;95335.13;;;13.87;43.31
41234;BME280;26968;42.686;23.352;2023-04-08T11:20:13;95291.41;;;13.69;43.32
41234;BME280;26968;42.686;23.352;2023-04-08T11:22:39;95311.41;;;13.67;43.65
41234;BME280;26968;42.686;23.352;2023-04-08T11:25:06;95303.63;;;13.89;44.77
41234;BME280;26968;42.686;23.352;2023-04-08T11:27:33;95311.91;;;14.20;44.05
41234;BME280;26968;42.686;23.352;2023-04-08T11:30:00;95245.53;;;13.72;43.25
41234;BME280;26968;42.686;23.352;2023-04-08T11:32:26;95288.69;;;14.39;41.52
41234;BME280;26968;42.686;23.352;2023-04-08T11:34:53;95248.78;;;14.15;41.17
41234;BME280;26968;42.686;23.352;2023-04-08T11:37:19;95324.06;;;14.45;41.76
41234;BME280;26968;42.686;23.352;2023-04-08T11:39:45;95261.31;;;14.47;41.35
41234;BME280;26968;42.686;23.352;2023-04-08T11:42:29;95311.34;;;15.10;41.42
41234;BME280;26968;42.686;23.352;2023-04-08T11:44:55;95304.00;;;15.29;41.48
41234;BME280;26968;42.686;23.352;2023-04-08T11:47:21;95286.25;;;15.33;40.33
41234;BME280;26968;42.686;23.352;2023-04-08T11:49:47;95294.84;;;15.71;39.88
41234;BME280;26968;42.686;23.352;2023-04-08T11:52:13;95307.31;;;15.62;39.88
41234;BME280;26968;42.686;23.352;2023-04-08T11:54:42;95300.53;;;15.78;38.36
41234;BME280;26968;42.686;23.352;2023-04-08T11:57:08;95263.34;;;15.91;37.99
41234;BME280;26968;42.686;23.352;2023-04-08T11:59:36;95262.78;;;15.80;37.63
41234;BME280;26968;42.686;23.352;2023-04-08T12:02:04;95277.72;;;16.26;37.34
41234;BME280;26968;42.686;23.352;2023-04-08T12:04:30;95263.16;;;16.09;37.11
41234;BME280;26968;42.686;23.352;2023-04-08T12:06:56;95272.06;;;16.58;37.61
41234;BME280;26968;42.686;23.352;2023-04-08T12:09:21;95278.72;;;17.00;35.79
41234;BME280;26968;42.686;23.352;2023-04-08T12:11:47;95235.34;;;16.89;35.42
41234;BME280;26968;42.686;23.352;2023-04-08T12:14:13;95267.13;;;17.39;36.49
41234;BME280;26968;42.686;23.352;2023-04-08T12:16:38;95273.47;;;17.69;36.26
41234;BME280;26968;42.686;23.352;2023-04-08T12:19:04;95219.78;;;17.09;35.55
41234;BME280;26968;42.686;23.352;2023-04-08T12:21:29;95255.81;;;17.77;36.33
41234;BME280;26968;42.686;23.352;2023-04-08T12:23:56;95255.47;;;17.95;35.18
41234;BME280;26968;42.686;23.352;2023-04-08T12:26:21;95230.47;;;18.29;33.66
41234;BME280;26968;42.686;23.352;2023-04-08T12:28:47;95264.97;;;18.48;33.89
41234;BME280;26968;42.686;23.352;2023-04-08T12:31:12;95226.97;;;18.29;33.48
41234;BME280;26968;42.686;23.352;2023-04-08T12:33:38;95250.41;;;18.02;32.75
41234;BME280;26968;42.686;23.352;2023-04-08T12:36:03;95245.69;;;17.91;32.48
41234;BME280;26968;42.686;23.352;2023-04-08T12:38:29;95245.00;;;17.25;33.62
41234;BME280;26968;42.686;23.352;2023-04-08T12:40:55;95223.16;;;16.35;36.04
41234;BME280;26968;42.686;23.352;2023-04-08T12:43:21;95232.34;;;16.20;35.84
41234;BME280;26968;42.686;23.352;2023-04-08T12:45:47;95224.06;;;16.00;36.65
41234;BME280;26968;42.686;23.352;2023-04-08T12:48:13;95270.38;;;15.51;38.28
41234;BME280;26968;42.686;23.352;2023-04-08T12:50:38;95262.50;;;15.10;38.99
41234;BME280;26968;42.686;23.352;2023-04-08T12:53:04;95234.03;;;14.50;40.42
41234;BME280;26968;42.686;23.352;2023-04-08T12:55:30;95225.44;;;14.53;40.74
41234;BME280;26968;42.686;23.352;2023-04-08T12:57:55;95197.53;;;14.18;41.76
41234;BME280;26968;42.686;23.352;2023-04-08T13:00:21;95278.41;;;14.60;42.68
41234;BME280;26968;42.686;23.352;2023-04-08T13:02:46;95225.25;;;14.04;42.59
41234;BME280;26968;42.686;23.352;2023-04-08T13:05:12;95238.50;;;13.95;42.58
41234;BME280;26968;42.686;23.352;2023-04-08T13:07:37;95243.03;;;13.95;42.73